Time;durP1;ratioP1;P1;durP2;ratioP2;P2;SDS_P1;SDS_P2;PMS_P1;PMS_P2;Temp;Humidity;BMP_temperature;BMP_pressure;BME280_temperature;BME280_humidity;BME280_pressure;Samples;Min_cycle;Max_cycle;Signal;HPM_P1;HPM_P2
2022/04/23 00:00:24;;;;;;;;;;;19.90;96.10;;;;;;4994406;28;19930;-56
2022/04/23 00:02:51;;;;;;;;;;;19.90;96.10;;;;;;5004997;28;20668;-58
2022/04/23 00:05:19;;;;;;;;;;;19.90;96.10;;;;;;5000593;28;20294;-57
2022/04/23 00:07:46;;;;;;;;;;;19.80;96.10;;;;;;4988163;28;20481;-57
2022/04/23 00:10:13;;;;;;;;;;;19.90;96.10;;;;;;5002956;28;19937;-57
2022/04/23 00:12:42;;;;;;;;;;;19.90;96.10;;;;;;5002126;28;19936;-54
2022/04/23 00:15:09;;;;;;;;;;;19.80;96.10;;;;;;5005305;28;20328;-57
2022/04/23 00:17:37;;;;;;;;;;;19.90;96.20;;;;;;5009098;28;19937;-57
2022/04/23 00:20:05;;;;;;;;;;;19.80;96.20;;;;;;4998213;28;20317;-53
2022/04/23 00:22:35;;;;;;;;;;;19.80;96.20;;;;;;5003654;28;19926;-53
2022/04/23 00:25:02;;;;;;;;;;;19.80;96.20;;;;;;4999322;28;19930;-55
2022/04/23 00:27:29;;;;;;;;;;;19.80;96.10;;;;;;5004286;28;19929;-57
2022/04/23 00:29:56;;;;;;;;;;;19.80;96.20;;;;;;4994151;28;20298;-56
2022/04/23 00:32:23;;;;;;;;;;;19.80;96.20;;;;;;5001185;28;20468;-56
2022/04/23 00:34:51;;;;;;;;;;;19.80;96.20;;;;;;5005846;28;19929;-55
2022/04/23 00:37:18;;;;;;;;;;;19.80;96.20;;;;;;5000066;28;19926;-55
2022/04/23 00:39:46;;;;;;;;;;;19.80;96.20;;;;;;5002227;28;19929;-57
2022/04/23 00:42:13;;;;;;;;;;;19.80;96.20;;;;;;5000248;28;20337;-58
2022/04/23 00:44:40;;;;;;;;;;;19.80;96.20;;;;;;4995897;28;20029;-52
2022/04/23 00:47:08;;;;;;;;;;;19.80;96.20;;;;;;5016810;28;20386;-53
2022/04/23 00:49:37;;;;;;;;;;;19.80;96.20;;;;;;4995145;28;19929;-56
2022/04/23 00:52:04;;;;;;;;;;;19.80;96.20;;;;;;5008959;28;19940;-58
2022/04/23 00:54:32;;;;;;;;;;;19.80;96.20;;;;;;4996379;28;19944;-56
2022/04/23 00:57:00;;;;;;;;;;;19.80;96.20;;;;;;5008147;28;19929;-56
2022/04/23 00:59:28;;;;;;;;;;;19.80;96.20;;;;;;4996429;28;19929;-52
2022/04/23 01:01:55;;;;;;;;;;;19.70;96.20;;;;;;5001608;28;19929;-54
2022/04/23 01:04:22;;;;;;;;;;;19.80;96.30;;;;;;5008800;28;19936;-56
2022/04/23 01:06:49;;;;;;;;;;;19.70;96.30;;;;;;4993772;28;20313;-57
2022/04/23 01:09:16;;;;;;;;;;;19.70;96.30;;;;;;4990886;28;20393;-54
2022/04/23 01:11:44;;;;;;;;;;;19.70;96.30;;;;;;5001747;28;20399;-53
2022/04/23 01:14:11;;;;;;;;;;;19.70;96.30;;;;;;4998091;28;19937;-56
2022/04/23 01:16:38;;;;;;;;;;;19.70;96.30;;;;;;4996493;28;19926;-57
2022/04/23 01:19:05;;;;;;;;;;;19.70;96.30;;;;;;4996092;28;19940;-56
2022/04/23 01:21:33;;;;;;;;;;;19.70;96.30;;;;;;5002003;28;19926;-58
2022/04/23 01:24:02;;;;;;;;;;;19.70;96.40;;;;;;4994139;28;19936;-55
2022/04/23 01:26:31;;;;;;;;;;;19.70;96.30;;;;;;4990847;28;19930;-56
2022/04/23 01:28:59;;;;;;;;;;;19.70;96.30;;;;;;5004350;28;19929;-56
2022/04/23 01:31:26;;;;;;;;;;;19.70;96.30;;;;;;4999129;28;19930;-57
2022/04/23 01:33:54;;;;;;;;;;;19.70;96.30;;;;;;4995213;28;19961;-54
2022/04/23 01:36:21;;;;;;;;;;;19.70;96.30;;;;;;4993400;28;20268;-55
2022/04/23 01:38:48;;;;;;;;;;;19.70;96.30;;;;;;5006977;28;19973;-56
2022/04/23 01:41:15;;;;;;;;;;;19.70;96.30;;;;;;5005660;28;19929;-54
2022/04/23 01:43:42;;;;;;;;;;;19.70;96.30;;;;;;5007510;28;19929;-58
2022/04/23 01:46:09;;;;;;;;;;;19.70;96.30;;;;;;4994126;28;19952;-56
2022/04/23 01:48:36;;;;;;;;;;;19.70;96.30;;;;;;4991668;28;19971;-57
2022/04/23 01:51:04;;;;;;;;;;;19.60;96.30;;;;;;5007228;28;20476;-55
2022/04/23 01:53:32;;;;;;;;;;;19.70;96.30;;;;;;5008013;28;20427;-58
2022/04/23 01:55:59;;;;;;;;;;;19.70;96.30;;;;;;5008305;28;19930;-58
2022/04/23 01:58:26;;;;;;;;;;;19.70;96.30;;;;;;4990801;28;19930;-59
2022/04/23 02:00:54;;;;;;;;;;;19.60;96.30;;;;;;4999223;28;19964;-57
2022/04/23 02:03:22;;;;;;;;;;;19.70;96.30;;;;;;5024929;28;19936;-57
2022/04/23 02:05:50;;;;;;;;;;;19.70;96.30;;;;;;5003099;28;19929;-55
2022/04/23 02:08:17;;;;;;;;;;;19.60;96.30;;;;;;4996066;28;19930;-56
2022/04/23 02:10:45;;;;;;;;;;;19.60;96.30;;;;;;5008111;28;19936;-56
2022/04/23 02:13:12;;;;;;;;;;;19.70;96.40;;;;;;4991280;28;20398;-55
2022/04/23 02:15:40;;;;;;;;;;;19.70;96.30;;;;;;5001919;28;19934;-57
2022/04/23 02:18:08;;;;;;;;;;;19.60;96.30;;;;;;5000876;28;19925;-53
2022/04/23 02:20:36;;;;;;;;;;;19.60;96.30;;;;;;5002435;28;19929;-57
2022/04/23 02:23:03;;;;;;;;;;;19.60;96.30;;;;;;4991586;28;19936;-55
2022/04/23 02:25:34;;;;;;;;;;;19.60;96.30;;;;;;5001453;28;19944;-54
2022/04/23 02:28:01;;;;;;;;;;;19.60;96.40;;;;;;4999389;28;19937;-55
2022/04/23 02:30:29;;;;;;;;;;;19.60;96.40;;;;;;5002112;28;19934;-52
2022/04/23 02:32:56;;;;;;;;;;;19.60;96.40;;;;;;4995727;28;19933;-55
2022/04/23 02:35:23;;;;;;;;;;;19.60;96.40;;;;;;4992030;28;19941;-56
2022/04/23 02:37:53;;;;;;;;;;;19.60;96.40;;;;;;4989798;28;19930;-55
2022/04/23 02:40:20;;;;;;;;;;;19.60;96.40;;;;;;5003202;28;19933;-54
2022/04/23 02:42:48;;;;;;;;;;;19.60;96.40;;;;;;4992358;28;19933;-56
2022/04/23 02:45:15;;;;;;;;;;;19.50;96.40;;;;;;5002762;28;19929;-53
2022/04/23 02:47:48;;;;;;;;;;;19.50;96.40;;;;;;5010062;28;19955;-55
2022/04/23 02:50:21;;;;;;;;;;;19.50;96.40;;;;;;5004234;28;20313;-52
2022/04/23 02:52:48;;;;;;;;;;;19.60;96.40;;;;;;4998587;28;19929;-55
2022/04/23 02:55:16;;;;;;;;;;;19.50;96.40;;;;;;5004498;28;20579;-56
2022/04/23 02:57:43;;;;;;;;;;;19.50;96.40;;;;;;4995227;28;19936;-56
2022/04/23 03:00:11;;;;;;;;;;;19.50;96.40;;;;;;5001987;28;19930;-55
2022/04/23 03:02:38;;;;;;;;;;;19.50;96.40;;;;;;4997852;28;19932;-55
2022/04/23 03:05:07;;;;;;;;;;;19.50;96.40;;;;;;5001141;28;19980;-55
2022/04/23 03:07:37;;;;;;;;;;;19.50;96.40;;;;;;4993642;28;20004;-56
2022/04/23 03:10:04;;;;;;;;;;;19.50;96.40;;;;;;4999461;28;19941;-58
2022/04/23 03:12:32;;;;;;;;;;;19.50;96.40;;;;;;4991513;28;19930;-52
2022/04/23 03:14:59;;;;;;;;;;;19.50;96.40;;;;;;5014193;28;20293;-54
2022/04/23 03:17:26;;;;;;;;;;;19.50;96.40;;;;;;4996870;28;19929;-55
2022/04/23 03:19:53;;;;;;;;;;;19.50;96.50;;;;;;4999121;28;20132;-55
2022/04/23 03:22:21;;;;;;;;;;;19.50;96.50;;;;;;4988411;28;19933;-54
2022/04/23 03:24:48;;;;;;;;;;;19.50;96.50;;;;;;4988859;28;19929;-56
2022/04/23 03:27:16;;;;;;;;;;;19.50;96.40;;;;;;4988423;28;19930;-52
2022/04/23 03:29:44;;;;;;;;;;;19.50;96.40;;;;;;4997103;28;19935;-55
2022/04/23 03:32:11;;;;;;;;;;;19.50;96.50;;;;;;4988502;28;19929;-55
2022/04/23 03:34:38;;;;;;;;;;;19.50;96.50;;;;;;4998558;28;20417;-56
2022/04/23 03:37:06;;;;;;;;;;;19.40;96.50;;;;;;4990183;28;19930;-56
2022/04/23 03:39:33;;;;;;;;;;;19.50;96.50;;;;;;4988640;28;19930;-58
2022/04/23 03:42:03;;;;;;;;;;;19.50;96.50;;;;;;4988054;28;19929;-54
2022/04/23 03:44:31;;;;;;;;;;;19.50;96.50;;;;;;4995632;28;19937;-54
2022/04/23 03:46:59;;;;;;;;;;;19.50;96.50;;;;;;4993477;28;19937;-54
2022/04/23 03:49:26;;;;;;;;;;;19.50;96.50;;;;;;5000303;28;19948;-57
2022/04/23 03:51:53;;;;;;;;;;;19.50;96.50;;;;;;4999531;28;19926;-55
2022/04/23 03:54:20;;;;;;;;;;;19.40;96.50;;;;;;4996365;28;19929;-58
2022/04/23 03:56:47;;;;;;;;;;;19.50;96.50;;;;;;5012465;28;19926;-54
2022/04/23 03:59:15;;;;;;;;;;;19.40;96.50;;;;;;5004047;28;19925;-55
2022/04/23 04:01:42;;;;;;;;;;;19.40;96.50;;;;;;5008429;28;19936;-56
2022/04/23 04:04:09;;;;;;;;;;;19.50;96.50;;;;;;5005255;28;19930;-56
2022/04/23 04:06:36;;;;;;;;;;;19.40;96.50;;;;;;4999277;28;19929;-58
2022/04/23 04:09:03;;;;;;;;;;;19.50;96.50;;;;;;4992306;28;19930;-55
2022/04/23 04:12:01;;;;;;;;;;;19.50;96.50;;;;;;4998767;28;20389;-53
2022/04/23 04:14:18;;;;;;;;;;;19.40;96.50;;;;;;4998149;28;20350;-57
2022/04/23 04:16:46;;;;;;;;;;;19.40;96.50;;;;;;5023454;28;19930;-57
2022/04/23 04:19:16;;;;;;;;;;;19.40;96.50;;;;;;5010894;28;19930;-58
2022/04/23 04:21:46;;;;;;;;;;;19.40;96.50;;;;;;5013957;28;19940;-57
2022/04/23 04:24:13;;;;;;;;;;;19.40;96.60;;;;;;5004282;28;19929;-54
2022/04/23 04:26:41;;;;;;;;;;;19.40;96.60;;;;;;5004283;28;19926;-56
2022/04/23 04:29:08;;;;;;;;;;;19.40;96.60;;;;;;4993239;28;19926;-57
2022/04/23 04:31:51;;;;;;;;;;;19.40;96.60;;;;;;5002044;28;19925;-57
2022/04/23 04:34:19;;;;;;;;;;;19.40;96.60;;;;;;4995217;28;19929;-53
2022/04/23 04:36:48;;;;;;;;;;;19.40;96.60;;;;;;5005326;28;19936;-56
2022/04/23 04:39:16;;;;;;;;;;;19.40;96.60;;;;;;4998659;28;19929;-54
2022/04/23 04:41:43;;;;;;;;;;;19.30;96.60;;;;;;5002834;28;19930;-57
2022/04/23 04:44:10;;;;;;;;;;;19.30;96.60;;;;;;4994216;28;19929;-54
2022/04/23 04:46:40;;;;;;;;;;;19.40;96.60;;;;;;5016093;28;19930;-56
2022/04/23 04:49:08;;;;;;;;;;;19.30;96.60;;;;;;5004001;28;19940;-54
2022/04/23 04:51:36;;;;;;;;;;;19.40;96.60;;;;;;5004776;28;19926;-54
2022/04/23 04:54:04;;;;;;;;;;;19.40;96.60;;;;;;4991394;28;19930;-54
2022/04/23 04:56:31;;;;;;;;;;;19.30;96.60;;;;;;4990139;28;19934;-57
2022/04/23 04:58:59;;;;;;;;;;;19.30;96.70;;;;;;5000571;28;19929;-53
2022/04/23 05:01:26;;;;;;;;;;;19.30;96.70;;;;;;5002842;28;20432;-57
2022/04/23 05:03:54;;;;;;;;;;;19.30;96.60;;;;;;5001911;28;20158;-56
2022/04/23 05:06:21;;;;;;;;;;;19.30;96.70;;;;;;5002887;28;20420;-58
2022/04/23 05:08:49;;;;;;;;;;;19.40;96.70;;;;;;5008615;28;19929;-55
2022/04/23 05:11:16;;;;;;;;;;;19.40;96.60;;;;;;5001473;28;19929;-55
2022/04/23 05:13:43;;;;;;;;;;;19.40;96.50;;;;;;4990931;28;19930;-54
2022/04/23 05:16:10;;;;;;;;;;;19.40;96.50;;;;;;5015345;28;19929;-56
2022/04/23 05:18:38;;;;;;;;;;;19.40;96.50;;;;;;4996040;28;20420;-57
2022/04/23 05:21:05;;;;;;;;;;;19.50;96.50;;;;;;4995075;28;20295;-57
2022/04/23 05:23:32;;;;;;;;;;;19.40;96.40;;;;;;4997170;28;20373;-55
2022/04/23 05:26:00;;;;;;;;;;;19.50;96.40;;;;;;4993072;28;19938;-56
2022/04/23 05:28:27;;;;;;;;;;;19.50;96.40;;;;;;5005893;28;19929;-58
2022/04/23 05:30:54;;;;;;;;;;;19.50;96.40;;;;;;5004258;28;19929;-54
2022/04/23 05:33:21;;;;;;;;;;;19.50;96.40;;;;;;4994461;28;20432;-55
2022/04/23 05:35:48;;;;;;;;;;;19.50;96.40;;;;;;5003931;28;19929;-56
2022/04/23 05:38:19;;;;;;;;;;;19.50;96.40;;;;;;5001583;28;20539;-56
2022/04/23 05:40:47;;;;;;;;;;;19.50;96.40;;;;;;5004388;28;19933;-58
2022/04/23 05:43:14;;;;;;;;;;;19.50;96.40;;;;;;4990746;28;19929;-55
2022/04/23 05:45:43;;;;;;;;;;;19.50;96.40;;;;;;5007850;28;20385;-55
2022/04/23 05:48:10;;;;;;;;;;;19.50;96.40;;;;;;5008499;28;19953;-56
2022/04/23 05:50:38;;;;;;;;;;;19.50;96.40;;;;;;4997891;28;19941;-54
2022/04/23 05:53:05;;;;;;;;;;;19.50;96.40;;;;;;4996684;28;19929;-57
2022/04/23 05:55:32;;;;;;;;;;;19.50;96.50;;;;;;5004059;28;19925;-56
2022/04/23 05:57:59;;;;;;;;;;;19.50;96.50;;;;;;5008374;28;19952;-57
2022/04/23 06:00:26;;;;;;;;;;;19.50;96.40;;;;;;5002715;28;19936;-56
2022/04/23 06:02:54;;;;;;;;;;;19.50;96.40;;;;;;5007731;28;20032;-57
2022/04/23 06:05:21;;;;;;;;;;;19.50;96.40;;;;;;4995324;28;19937;-55
2022/04/23 06:07:49;;;;;;;;;;;19.50;96.40;;;;;;4992768;28;19930;-53
2022/04/23 06:10:16;;;;;;;;;;;19.50;96.40;;;;;;4994982;28;19933;-52
2022/04/23 06:12:43;;;;;;;;;;;19.50;96.40;;;;;;5008159;28;19936;-55
2022/04/23 06:15:10;;;;;;;;;;;19.50;96.50;;;;;;5004624;28;19929;-56
2022/04/23 06:17:37;;;;;;;;;;;19.50;96.50;;;;;;5018213;28;19929;-57
2022/04/23 06:20:05;;;;;;;;;;;19.40;96.60;;;;;;4999383;28;19929;-58
2022/04/23 06:22:32;;;;;;;;;;;19.50;96.60;;;;;;5000976;28;19926;-55
2022/04/23 06:24:59;;;;;;;;;;;19.40;96.60;;;;;;5002430;28;19926;-55
2022/04/23 06:27:26;;;;;;;;;;;19.40;96.60;;;;;;4991241;28;19930;-57
2022/04/23 06:29:54;;;;;;;;;;;19.50;96.60;;;;;;4996617;28;20102;-57
2022/04/23 06:32:21;;;;;;;;;;;19.50;96.60;;;;;;5003764;28;19933;-55
2022/04/23 06:34:48;;;;;;;;;;;19.40;96.60;;;;;;5006521;28;19934;-57
2022/04/23 06:37:17;;;;;;;;;;;19.40;96.70;;;;;;4989652;28;19933;-56
2022/04/23 06:39:44;;;;;;;;;;;19.40;96.70;;;;;;4999128;28;19948;-57
2022/04/23 06:42:11;;;;;;;;;;;19.40;96.70;;;;;;5000956;28;19933;-57
2022/04/23 06:44:39;;;;;;;;;;;19.40;96.70;;;;;;4995997;28;19945;-54
2022/04/23 06:47:07;;;;;;;;;;;19.40;96.70;;;;;;5011877;28;19929;-56
2022/04/23 06:49:34;;;;;;;;;;;19.40;96.70;;;;;;4994448;28;19930;-56
2022/04/23 06:52:01;;;;;;;;;;;19.40;96.70;;;;;;4999063;28;19937;-58
2022/04/23 06:54:28;;;;;;;;;;;19.40;96.80;;;;;;5006916;28;19934;-57
2022/04/23 06:56:55;;;;;;;;;;;19.40;96.80;;;;;;5006988;28;19937;-53
2022/04/23 06:59:23;;;;;;;;;;;19.40;96.80;;;;;;5013408;28;20341;-54
2022/04/23 07:01:50;;;;;;;;;;;19.50;96.80;;;;;;5007022;28;19933;-57
2022/04/23 07:04:18;;;;;;;;;;;19.50;96.80;;;;;;5008447;28;19925;-58
2022/04/23 07:06:45;;;;;;;;;;;19.50;96.80;;;;;;5005322;28;19929;-59
2022/04/23 07:09:12;;;;;;;;;;;19.50;96.80;;;;;;5004434;28;19936;-59
2022/04/23 07:11:39;;;;;;;;;;;19.50;96.90;;;;;;4998527;28;20302;-57
2022/04/23 07:14:07;;;;;;;;;;;19.40;96.60;;;;;;5006028;28;19936;-58
2022/04/23 07:16:34;;;;;;;;;;;19.20;95.50;;;;;;5011028;28;19936;-56
2022/04/23 07:19:01;;;;;;;;;;;18.90;94.80;;;;;;4996386;28;19936;-54
2022/04/23 07:21:29;;;;;;;;;;;18.70;93.60;;;;;;4997169;28;20344;-57
2022/04/23 07:24:05;;;;;;;;;;;18.50;94.10;;;;;;4995790;28;19930;-58
2022/04/23 07:26:37;;;;;;;;;;;18.50;94.90;;;;;;5009088;28;19929;-59
2022/04/23 07:29:07;;;;;;;;;;;18.40;94.00;;;;;;4995411;28;19932;-55
2022/04/23 07:31:35;;;;;;;;;;;18.40;94.40;;;;;;4995809;28;19934;-55
2022/04/23 07:39:36;;;;;;;;;;;18.30;94.10;;;;;;4995277;28;20356;-54
2022/04/23 07:42:05;;;;;;;;;;;18.30;93.60;;;;;;5001214;28;19930;-58
2022/04/23 07:44:33;;;;;;;;;;;18.30;94.00;;;;;;4993392;28;19945;-59
2022/04/23 07:47:00;;;;;;;;;;;18.30;93.70;;;;;;4993958;28;20222;-57
2022/04/23 07:49:27;;;;;;;;;;;18.30;93.20;;;;;;4995709;28;20377;-54
2022/04/23 07:51:54;;;;;;;;;;;18.20;94.00;;;;;;5003807;28;19929;-57
2022/04/23 07:54:23;;;;;;;;;;;18.50;94.40;;;;;;5002249;28;19929;-54
2022/04/23 07:56:50;;;;;;;;;;;18.70;94.10;;;;;;5005416;28;19930;-58
2022/04/23 07:59:17;;;;;;;;;;;18.90;93.90;;;;;;4999919;28;19933;-54
2022/04/23 08:01:44;;;;;;;;;;;19.00;93.80;;;;;;5001332;28;20000;-56
2022/04/23 08:04:11;;;;;;;;;;;19.10;93.80;;;;;;4994487;28;19937;-57
2022/04/23 08:06:38;;;;;;;;;;;19.10;93.80;;;;;;4991737;28;19933;-57
2022/04/23 08:09:06;;;;;;;;;;;19.20;93.80;;;;;;4987517;28;19926;-58
2022/04/23 08:11:33;;;;;;;;;;;19.20;93.90;;;;;;5002384;28;20262;-57
2022/04/23 08:14:00;;;;;;;;;;;19.20;94.00;;;;;;4994160;28;19930;-56
2022/04/23 08:16:27;;;;;;;;;;;19.20;94.00;;;;;;5010126;28;19929;-55
2022/04/23 08:18:54;;;;;;;;;;;19.30;94.30;;;;;;4997063;28;19929;-57
2022/04/23 08:21:22;;;;;;;;;;;19.30;94.40;;;;;;5003216;28;19944;-55
2022/04/23 08:23:50;;;;;;;;;;;19.30;95.10;;;;;;4998942;28;19929;-58
2022/04/23 08:26:17;;;;;;;;;;;19.30;95.10;;;;;;5009195;28;19933;-59
2022/04/23 08:31:30;;;;;;;;;;;19.30;95.70;;;;;;5001022;28;19937;-58
2022/04/23 08:33:58;;;;;;;;;;;19.30;95.90;;;;;;4999646;28;20283;-56
2022/04/23 08:36:26;;;;;;;;;;;19.40;95.90;;;;;;4988896;28;19930;-57
2022/04/23 08:38:56;;;;;;;;;;;19.40;95.90;;;;;;5013518;28;20192;-56
2022/04/23 08:41:30;;;;;;;;;;;19.40;96.00;;;;;;5002332;28;19925;-55
2022/04/23 08:44:07;;;;;;;;;;;19.40;96.00;;;;;;5008846;28;19929;-56
2022/04/23 08:46:38;;;;;;;;;;;19.40;96.20;;;;;;5006073;28;19929;-57
2022/04/23 08:49:08;;;;;;;;;;;19.40;96.30;;;;;;5001908;28;19929;-54
2022/04/23 08:51:36;;;;;;;;;;;19.40;96.40;;;;;;5020875;28;19932;-54
2022/04/23 08:54:07;;;;;;;;;;;19.40;96.50;;;;;;4993780;28;19930;-55
2022/04/23 08:56:36;;;;;;;;;;;19.40;96.50;;;;;;5004704;28;19941;-57
2022/04/23 08:59:04;;;;;;;;;;;19.50;96.90;;;;;;5014391;28;19936;-54
2022/04/23 09:01:31;;;;;;;;;;;19.50;96.70;;;;;;5000684;28;20429;-55
2022/04/23 09:03:59;;;;;;;;;;;19.50;96.70;;;;;;5006946;28;19936;-59
2022/04/23 09:06:42;;;;;;;;;;;19.50;96.60;;;;;;5012839;28;20152;-57
2022/04/23 09:09:13;;;;;;;;;;;19.50;96.50;;;;;;5011765;28;20407;-57
2022/04/23 09:11:41;;;;;;;;;;;19.50;96.60;;;;;;5010196;28;19936;-52
2022/04/23 09:14:09;;;;;;;;;;;19.60;96.60;;;;;;4998039;28;19937;-56
2022/04/23 09:25:06;;;;;;;;;;;19.70;96.80;;;;;;5002424;28;20305;-59
2022/04/23 09:27:34;;;;;;;;;;;19.60;96.80;;;;;;4997085;28;19930;-56
2022/04/23 09:30:02;;;;;;;;;;;19.60;96.90;;;;;;5008549;28;19930;-59
2022/04/23 09:32:30;;;;;;;;;;;19.60;97.10;;;;;;4992449;28;20005;-55
2022/04/23 09:35:03;;;;;;;;;;;19.60;97.00;;;;;;4995589;28;20369;-55
2022/04/23 09:38:11;;;;;;;;;;;19.50;96.80;;;;;;5007154;28;19929;-55
2022/04/23 09:40:22;;;;;;;;;;;19.50;96.50;;;;;;5001882;28;19956;-56
2022/04/23 09:43:03;;;;;;;;;;;19.40;96.00;;;;;;5016336;28;19929;-57
2022/04/23 09:45:31;;;;;;;;;;;19.40;95.50;;;;;;5005744;28;19936;-57
2022/04/23 09:48:03;;;;;;;;;;;19.40;95.00;;;;;;4994263;28;19936;-55
2022/04/23 09:50:39;;;;;;;;;;;19.40;94.60;;;;;;5002761;28;19929;-55
2022/04/23 09:53:14;;;;;;;;;;;19.40;94.10;;;;;;4992030;28;20449;-52
2022/04/23 09:55:41;;;;;;;;;;;19.40;93.50;;;;;;5000847;28;19926;-57
2022/04/23 09:58:09;;;;;;;;;;;19.50;93.30;;;;;;5007649;28;19929;-57
2022/04/23 10:00:38;;;;;;;;;;;19.40;93.20;;;;;;5003412;28;19934;-56
2022/04/23 10:03:08;;;;;;;;;;;19.50;93.10;;;;;;5000367;28;19925;-58
2022/04/23 10:05:45;;;;;;;;;;;19.50;93.00;;;;;;4994439;28;20398;-55
2022/04/23 10:08:16;;;;;;;;;;;19.50;93.10;;;;;;4991062;28;19930;-57
2022/04/23 10:10:44;;;;;;;;;;;19.50;93.10;;;;;;5003005;28;20369;-53
2022/04/23 10:13:12;;;;;;;;;;;19.50;93.20;;;;;;4991185;28;19930;-58
2022/04/23 10:15:40;;;;;;;;;;;19.50;93.30;;;;;;5004349;28;19929;-56
2022/04/23 10:18:08;;;;;;;;;;;19.50;93.40;;;;;;5007985;28;20318;-56
2022/04/23 10:20:37;;;;;;;;;;;19.50;93.40;;;;;;5007366;28;19925;-56
2022/04/23 10:23:20;;;;;;;;;;;19.50;93.50;;;;;;4989039;28;19942;-57
2022/04/23 10:26:01;;;;;;;;;;;19.50;93.60;;;;;;5001988;28;19926;-56
2022/04/23 10:28:29;;;;;;;;;;;19.50;93.60;;;;;;5000250;28;20335;-54
2022/04/23 10:31:15;;;;;;;;;;;19.50;93.70;;;;;;4993041;28;19930;-58
2022/04/23 10:33:47;;;;;;;;;;;19.50;93.80;;;;;;4989499;28;19930;-55
2022/04/23 10:36:14;;;;;;;;;;;19.50;93.90;;;;;;5005556;28;19929;-58
2022/04/23 10:38:42;;;;;;;;;;;19.50;93.90;;;;;;5004214;28;20001;-59
2022/04/23 10:41:10;;;;;;;;;;;19.60;94.00;;;;;;5009585;28;19941;-56
2022/04/23 10:43:48;;;;;;;;;;;19.60;94.00;;;;;;4997485;28;19936;-56
2022/04/23 10:46:35;;;;;;;;;;;19.50;94.10;;;;;;5016607;28;19972;-57
2022/04/23 10:49:18;;;;;;;;;;;19.50;94.40;;;;;;4991421;28;20377;-57
2022/04/23 10:51:46;;;;;;;;;;;19.50;94.20;;;;;;4999196;28;19937;-55
2022/04/23 10:54:16;;;;;;;;;;;19.50;94.30;;;;;;4994033;28;19930;-56
2022/04/23 10:56:44;;;;;;;;;;;19.50;94.30;;;;;;5005424;28;19930;-52
2022/04/23 10:59:29;;;;;;;;;;;19.50;94.30;;;;;;4990202;28;19933;-57
2022/04/23 11:02:02;;;;;;;;;;;19.50;94.40;;;;;;4999898;28;19937;-52
2022/04/23 11:04:29;;;;;;;;;;;19.50;94.50;;;;;;5001957;28;19929;-54
2022/04/23 11:12:55;;;;;;;;;;;19.50;94.50;;;;;;5006261;28;19929;-56
2022/04/23 11:15:22;;;;;;;;;;;19.50;94.50;;;;;;5013552;28;20309;-57
2022/04/23 11:17:53;;;;;;;;;;;19.60;94.60;;;;;;5009584;28;19930;-55
2022/04/23 11:20:27;;;;;;;;;;;19.60;94.60;;;;;;4995995;28;19942;-56
2022/04/23 11:22:55;;;;;;;;;;;19.60;94.60;;;;;;4991564;28;19952;-59
2022/04/23 11:25:23;;;;;;;;;;;19.50;94.70;;;;;;5006339;28;20269;-59
2022/04/23 11:27:50;;;;;;;;;;;19.60;94.70;;;;;;4991505;28;19974;-59
2022/04/23 11:30:26;;;;;;;;;;;19.60;94.80;;;;;;4988369;28;19930;-55
2022/04/23 11:32:53;;;;;;;;;;;19.50;94.80;;;;;;4987960;28;19925;-56
2022/04/23 11:35:26;;;;;;;;;;;19.50;94.80;;;;;;5002561;28;20416;-55
2022/04/23 11:37:56;;;;;;;;;;;19.50;94.80;;;;;;5008120;28;20033;-59
2022/04/23 11:40:28;;;;;;;;;;;19.50;94.80;;;;;;5010264;28;19932;-53
2022/04/23 11:42:55;;;;;;;;;;;19.60;94.90;;;;;;4998540;28;20417;-55
2022/04/23 11:45:23;;;;;;;;;;;19.50;94.90;;;;;;5000466;28;19937;-55
2022/04/23 11:47:51;;;;;;;;;;;19.50;95.10;;;;;;4988945;28;20122;-58
2022/04/23 11:50:22;;;;;;;;;;;19.50;94.90;;;;;;4991212;28;20328;-56
2022/04/23 11:52:56;;;;;;;;;;;19.50;94.90;;;;;;4987603;28;19941;-55
2022/04/23 11:55:26;;;;;;;;;;;19.50;94.90;;;;;;4989157;28;19930;-53
2022/04/23 11:57:54;;;;;;;;;;;19.50;95.00;;;;;;5001227;28;19930;-55
2022/04/23 12:00:22;;;;;;;;;;;19.50;95.00;;;;;;5001157;28;19930;-55
2022/04/23 12:02:49;;;;;;;;;;;19.50;95.00;;;;;;4995644;28;19933;-54
2022/04/23 12:05:23;;;;;;;;;;;19.50;95.00;;;;;;4994591;28;19952;-57
2022/04/23 12:07:50;;;;;;;;;;;19.50;95.10;;;;;;4988927;28;20408;-56
2022/04/23 12:10:25;;;;;;;;;;;19.50;95.10;;;;;;4995115;28;20270;-53
2022/04/23 12:12:52;;;;;;;;;;;19.40;94.90;;;;;;4997924;28;19940;-55
2022/04/23 12:15:22;;;;;;;;;;;19.40;94.40;;;;;;5006878;28;19936;-53
2022/04/23 12:17:53;;;;;;;;;;;19.40;94.40;;;;;;5012283;28;20041;-57
2022/04/23 12:20:21;;;;;;;;;;;19.30;94.20;;;;;;4999935;28;19972;-55
2022/04/23 12:22:56;;;;;;;;;;;19.30;93.70;;;;;;4991752;28;19933;-57
2022/04/23 12:25:25;;;;;;;;;;;19.30;93.30;;;;;;4997378;28;20001;-59
2022/04/23 12:27:53;;;;;;;;;;;19.30;93.10;;;;;;5024209;28;20282;-56
2022/04/23 12:41:57;;;;;;;;;;;19.20;91.20;;;;;;4997388;28;19930;-53
2022/04/23 12:44:35;;;;;;;;;;;19.20;91.10;;;;;;4999076;28;19930;-56
2022/04/23 12:47:03;;;;;;;;;;;19.20;91.00;;;;;;5018298;28;20328;-58
2022/04/23 12:49:50;;;;;;;;;;;19.20;90.80;;;;;;5006067;28;20314;-54
2022/04/23 12:52:21;;;;;;;;;;;19.20;90.70;;;;;;4990260;28;20390;-57
2022/04/23 12:55:07;;;;;;;;;;;19.20;90.40;;;;;;4993940;28;20325;-53
2022/04/23 12:57:34;;;;;;;;;;;19.10;90.30;;;;;;4998116;28;19937;-56
2022/04/23 13:00:01;;;;;;;;;;;19.10;90.20;;;;;;5002786;28;19930;-56
2022/04/23 13:02:35;;;;;;;;;;;19.10;90.10;;;;;;4999876;28;19930;-60
2022/04/23 13:05:03;;;;;;;;;;;19.10;90.00;;;;;;5001415;28;19925;-58
2022/04/23 13:10:16;;;;;;;;;;;19.10;89.60;;;;;;5007392;28;19929;-57
2022/04/23 13:12:43;;;;;;;;;;;19.10;89.70;;;;;;5009927;28;19925;-58
2022/04/23 13:15:11;;;;;;;;;;;19.10;89.50;;;;;;5012242;28;19932;-58
2022/04/23 13:17:38;;;;;;;;;;;19.20;89.70;;;;;;5011377;28;19925;-55
2022/04/23 13:20:07;;;;;;;;;;;19.20;89.60;;;;;;5007296;28;19926;-56
2022/04/23 13:22:34;;;;;;;;;;;19.20;89.40;;;;;;5003552;28;19936;-55
2022/04/23 13:25:02;;;;;;;;;;;19.10;89.10;;;;;;4990501;28;19930;-57
2022/04/23 13:27:29;;;;;;;;;;;19.20;89.20;;;;;;5001977;28;20437;-57
2022/04/23 13:29:57;;;;;;;;;;;19.10;89.00;;;;;;5007542;28;20397;-56
2022/04/23 13:32:24;;;;;;;;;;;19.10;89.00;;;;;;5007747;28;19930;-55
2022/04/23 13:34:51;;;;;;;;;;;19.10;88.90;;;;;;5007106;28;19941;-55
2022/04/23 13:37:19;;;;;;;;;;;19.10;88.80;;;;;;5008303;28;20420;-65
2022/04/23 13:39:47;;;;;;;;;;;19.10;89.10;;;;;;5002252;28;19976;-56
2022/04/23 13:42:14;;;;;;;;;;;19.10;89.00;;;;;;4990088;28;19936;-58
2022/04/23 13:44:41;;;;;;;;;;;19.20;89.50;;;;;;4995227;28;19949;-58
2022/04/23 13:47:09;;;;;;;;;;;19.30;89.90;;;;;;5013154;28;20466;-58
2022/04/23 13:49:37;;;;;;;;;;;19.40;89.90;;;;;;5004002;28;19933;-57
2022/04/23 13:52:05;;;;;;;;;;;19.60;89.70;;;;;;5000611;28;19936;-56
2022/04/23 13:54:36;;;;;;;;;;;20.00;89.30;;;;;;5005251;28;19941;-57
2022/04/23 13:57:04;;;;;;;;;;;20.20;88.80;;;;;;4992390;28;20310;-59
2022/04/23 13:59:33;;;;;;;;;;;20.30;88.50;;;;;;5008945;28;19936;-58
2022/04/23 14:10:20;;;;;;;;;;;20.70;88.40;;;;;;4995020;28;19932;-59
2022/04/23 14:12:47;;;;;;;;;;;20.80;88.60;;;;;;4999901;28;19930;-58
2022/04/23 14:15:15;;;;;;;;;;;20.80;88.70;;;;;;5006647;28;19937;-58
2022/04/23 14:17:42;;;;;;;;;;;20.90;88.70;;;;;;5002080;28;20397;-57
2022/04/23 14:20:09;;;;;;;;;;;20.90;88.70;;;;;;5014405;28;19941;-61
2022/04/23 14:22:36;;;;;;;;;;;21.00;88.90;;;;;;4991283;28;19930;-56
2022/04/23 14:25:04;;;;;;;;;;;21.10;89.00;;;;;;5013880;28;20429;-55
2022/04/23 14:27:32;;;;;;;;;;;21.10;89.00;;;;;;5039293;28;19933;-55
2022/04/23 14:29:59;;;;;;;;;;;21.10;89.10;;;;;;5015510;28;20028;-56
2022/04/23 14:32:26;;;;;;;;;;;21.10;89.20;;;;;;4999092;28;19937;-58
2022/04/23 14:34:53;;;;;;;;;;;21.20;89.30;;;;;;4993869;28;19926;-54
2022/04/23 14:37:21;;;;;;;;;;;21.10;89.50;;;;;;5000025;28;19925;-55
2022/04/23 14:39:48;;;;;;;;;;;21.20;89.60;;;;;;4989557;28;19926;-58
2022/04/23 14:42:15;;;;;;;;;;;21.10;89.70;;;;;;5003107;28;19933;-59
2022/04/23 14:44:43;;;;;;;;;;;21.20;90.00;;;;;;5001424;28;19929;-57
2022/04/23 14:47:11;;;;;;;;;;;21.10;90.10;;;;;;5006975;28;19937;-56
2022/04/23 14:49:38;;;;;;;;;;;21.10;90.10;;;;;;5007922;28;19985;-55
2022/04/23 14:54:52;;;;;;;;;;;21.10;90.20;;;;;;4997475;28;20372;-58
2022/04/23 14:57:20;;;;;;;;;;;21.10;90.30;;;;;;4996597;28;19930;-58
2022/04/23 14:59:47;;;;;;;;;;;21.00;90.40;;;;;;5004811;28;19936;-57
2022/04/23 15:02:14;;;;;;;;;;;21.00;90.50;;;;;;5004362;28;20201;-58
2022/04/23 15:04:41;;;;;;;;;;;21.00;90.80;;;;;;5003869;28;20393;-57
2022/04/23 15:07:09;;;;;;;;;;;21.00;90.60;;;;;;5000893;28;19944;-57
2022/04/23 15:09:36;;;;;;;;;;;21.00;90.60;;;;;;4993112;28;19930;-58
2022/04/23 15:12:04;;;;;;;;;;;21.00;90.60;;;;;;5007012;28;20349;-58